createdAt,value
2019-02-18T00:00:39.750Z,0.00
2019-02-18T00:01:39.773Z,0.00
2019-02-18T00:02:39.552Z,0.00
2019-02-18T00:03:39.445Z,0.00
2019-02-18T00:04:39.348Z,0.00
2019-02-18T00:05:39.247Z,0.00
2019-02-18T00:06:39.162Z,0.00
2019-02-18T00:07:39.152Z,0.00
2019-02-18T00:08:38.948Z,0.00
2019-02-18T00:09:38.849Z,0.00
2019-02-18T00:10:38.750Z,0.00
2019-02-18T00:11:38.665Z,0.00
2019-02-18T00:12:38.550Z,0.00
2019-02-18T00:13:38.449Z,0.00
2019-02-18T00:14:38.349Z,0.00
2019-02-18T00:15:38.250Z,0.00
2019-02-18T00:16:38.167Z,0.00
2019-02-18T00:17:38.054Z,0.00
2019-02-18T00:18:37.949Z,0.00
2019-02-18T00:19:37.849Z,0.00
2019-02-18T00:20:37.752Z,0.00
2019-02-18T00:21:37.683Z,0.00
2019-02-18T00:22:37.549Z,0.00
2019-02-18T00:23:37.456Z,0.00
2019-02-18T00:24:37.354Z,0.00
2019-02-18T00:25:37.254Z,0.00
2019-02-18T00:26:37.169Z,0.00
2019-02-18T00:27:37.055Z,0.00
2019-02-18T00:28:37.122Z,0.00
2019-02-18T00:29:36.854Z,0.00
2019-02-18T00:30:36.751Z,0.00
2019-02-18T00:31:36.669Z,0.00
2019-02-18T00:32:36.556Z,0.00
2019-02-18T00:33:36.453Z,0.00
2019-02-18T00:34:36.355Z,0.00
2019-02-18T00:35:36.255Z,0.00
2019-02-18T00:36:36.168Z,0.00
2019-02-18T00:37:36.053Z,0.00
2019-02-18T00:38:35.956Z,0.00
2019-02-18T00:39:35.855Z,0.00
2019-02-18T00:40:35.760Z,0.00
2019-02-18T00:41:35.672Z,0.00
2019-02-18T00:42:35.555Z,0.00
2019-02-18T00:43:35.457Z,0.00
2019-02-18T00:44:35.377Z,0.00
2019-02-18T00:45:35.256Z,0.00
2019-02-18T00:46:35.175Z,0.00
2019-02-18T00:47:35.067Z,0.00
2019-02-18T00:48:34.960Z,0.00
2019-02-18T00:49:34.856Z,0.00
2019-02-18T00:50:34.757Z,0.00
2019-02-18T00:51:34.675Z,0.00
2019-02-18T00:52:34.556Z,0.00
2019-02-18T00:53:34.456Z,0.00
2019-02-18T00:54:34.360Z,0.00
2019-02-18T00:55:34.262Z,0.00
2019-02-18T00:56:34.174Z,0.00
2019-02-18T00:57:34.057Z,0.00
2019-02-18T00:58:33.956Z,0.00
2019-02-18T00:59:33.863Z,0.00
2019-02-18T01:00:33.757Z,0.00
2019-02-18T01:01:33.673Z,0.00
2019-02-18T01:02:33.559Z,0.00
2019-02-18T01:03:33.458Z,0.00
2019-02-18T01:04:33.362Z,0.00
2019-02-18T01:05:33.258Z,0.00
2019-02-18T01:06:33.159Z,0.00
2019-02-18T01:07:35.114Z,0.00
2019-02-18T01:08:32.956Z,0.00
2019-02-18T01:09:32.861Z,0.00
2019-02-18T01:10:32.855Z,0.00
2019-02-18T01:11:32.673Z,0.00
2019-02-18T01:12:32.557Z,0.00
2019-02-18T01:13:32.459Z,0.00
2019-02-18T01:14:32.360Z,0.00
2019-02-18T01:15:32.259Z,0.00
2019-02-18T01:16:32.157Z,0.00
2019-02-18T01:17:32.075Z,0.00
2019-02-18T01:18:31.956Z,0.00
2019-02-18T01:19:31.858Z,0.00
2019-02-18T01:20:31.765Z,0.00
2019-02-18T01:21:31.669Z,0.00
2019-02-18T01:22:31.576Z,0.00
2019-02-18T01:23:31.457Z,0.00
2019-02-18T01:24:31.457Z,0.00
2019-02-18T01:25:31.256Z,0.00
2019-02-18T01:26:31.164Z,0.00
2019-02-18T01:27:31.073Z,0.00
2019-02-18T01:28:30.957Z,0.00
2019-02-18T01:29:30.860Z,0.00
2019-02-18T01:30:30.758Z,0.00
2019-02-18T01:31:30.659Z,0.00
2019-02-18T01:32:30.576Z,0.00
2019-02-18T01:33:30.468Z,0.00
2019-02-18T01:34:30.356Z,0.00
2019-02-18T01:35:30.255Z,0.00
2019-02-18T01:36:30.154Z,0.00
2019-02-18T01:37:30.073Z,0.00
2019-02-18T01:38:29.956Z,0.00
2019-02-18T01:39:29.858Z,0.00
2019-02-18T01:40:29.757Z,0.00
2019-02-18T01:41:29.660Z,0.00
2019-02-18T01:42:29.572Z,0.00
2019-02-18T01:43:29.454Z,0.00
2019-02-18T01:44:29.357Z,0.00
2019-02-18T01:45:29.254Z,0.00
2019-02-18T01:46:29.157Z,0.00
2019-02-18T01:47:29.076Z,0.00
2019-02-18T01:48:28.958Z,0.00
2019-02-18T01:49:28.870Z,0.00
2019-02-18T01:50:28.755Z,0.00
2019-02-18T01:51:28.652Z,0.00
2019-02-18T01:52:28.569Z,0.00
2019-02-18T01:53:28.452Z,0.00
2019-02-18T01:54:28.355Z,0.00
2019-02-18T01:55:28.258Z,0.00
2019-02-18T01:56:28.153Z,0.00
2019-02-18T01:57:28.068Z,0.00
2019-02-18T01:58:27.953Z,0.00
2019-02-18T01:59:27.857Z,0.00
2019-02-18T02:00:27.751Z,0.00
2019-02-18T02:01:27.650Z,0.00
2019-02-18T02:02:27.568Z,0.00
2019-02-18T02:03:27.455Z,0.00
2019-02-18T02:04:27.349Z,0.00
2019-02-18T02:05:27.249Z,0.00
2019-02-18T02:06:27.150Z,0.00
2019-02-18T02:07:27.460Z,0.00
2019-02-18T02:08:26.951Z,0.00
2019-02-18T02:09:26.852Z,0.00
2019-02-18T02:10:26.747Z,0.00
2019-02-18T02:11:26.647Z,0.00
2019-02-18T02:12:26.564Z,0.00
2019-02-18T02:13:26.448Z,0.00
2019-02-18T02:14:26.450Z,0.00
2019-02-18T02:15:26.244Z,0.00
2019-02-18T02:16:26.145Z,0.00
2019-02-18T02:17:26.063Z,0.00
2019-02-18T02:18:25.947Z,0.00
2019-02-18T02:19:25.855Z,0.00
2019-02-18T02:20:25.747Z,0.00
2019-02-18T02:21:25.749Z,0.00
2019-02-18T02:22:25.558Z,0.00
2019-02-18T02:23:25.441Z,0.00
2019-02-18T02:24:25.353Z,0.00
2019-02-18T02:25:25.246Z,0.00
2019-02-18T02:26:25.142Z,0.00
2019-02-18T02:27:25.061Z,0.00
2019-02-18T02:28:25.051Z,0.00
2019-02-18T02:29:24.841Z,0.00
2019-02-18T02:30:24.744Z,0.00
2019-02-18T02:31:24.642Z,0.00
2019-02-18T02:32:24.556Z,0.00
2019-02-18T02:33:24.438Z,0.00
2019-02-18T02:34:24.336Z,0.00
2019-02-18T02:35:24.339Z,0.00
2019-02-18T02:36:24.137Z,0.00
2019-02-18T02:37:24.053Z,0.00
2019-02-18T02:38:23.936Z,0.00
2019-02-18T02:39:23.840Z,0.00
2019-02-18T02:40:23.738Z,0.00
2019-02-18T02:41:23.640Z,0.00
2019-02-18T02:42:23.651Z,0.00
2019-02-18T02:43:23.445Z,0.00
2019-02-18T02:44:23.332Z,0.00
2019-02-18T02:45:23.232Z,0.00
2019-02-18T02:46:23.131Z,0.00
2019-02-18T02:47:23.056Z,0.00
2019-02-18T02:48:23.055Z,0.00
2019-02-18T02:49:22.829Z,0.00
2019-02-18T02:50:22.730Z,0.00
2019-02-18T02:51:22.627Z,0.00
2019-02-18T02:52:22.547Z,0.00
2019-02-18T02:53:22.427Z,0.00
2019-02-18T02:54:22.328Z,0.00
2019-02-18T02:55:22.325Z,0.00
2019-02-18T02:56:22.126Z,0.00
2019-02-18T02:57:22.029Z,0.00
2019-02-18T02:58:21.940Z,0.00
2019-02-18T02:59:21.821Z,0.00
2019-02-18T03:00:21.722Z,0.00
2019-02-18T03:01:21.626Z,0.00
2019-02-18T03:02:21.524Z,0.00
2019-02-18T03:03:21.536Z,0.00
2019-02-18T03:04:21.327Z,0.00
2019-02-18T03:05:21.219Z,0.00
2019-02-18T03:06:21.118Z,0.00
2019-02-18T03:07:21.031Z,0.00
2019-02-18T03:08:21.151Z,0.00
2019-02-18T03:09:20.919Z,0.00
2019-02-18T03:10:20.717Z,0.00
2019-02-18T03:11:20.618Z,0.00
2019-02-18T03:12:20.529Z,0.00
2019-02-18T03:13:20.435Z,0.00
2019-02-18T03:14:20.314Z,0.00
2019-02-18T03:15:20.231Z,0.00
2019-02-18T03:16:20.118Z,0.00
2019-02-18T03:17:20.017Z,0.00
2019-02-18T03:18:19.928Z,0.00
2019-02-18T03:19:19.812Z,0.00
2019-02-18T03:20:19.711Z,0.00
2019-02-18T03:21:19.609Z,0.00
2019-02-18T03:22:19.509Z,0.00
2019-02-18T03:23:19.422Z,0.00
2019-02-18T03:24:19.307Z,0.00
2019-02-18T03:25:19.211Z,0.00
2019-02-18T03:26:19.103Z,0.00
2019-02-18T03:27:19.004Z,0.00
2019-02-18T03:28:18.929Z,0.00
2019-02-18T03:29:18.806Z,0.00
2019-02-18T03:30:18.703Z,0.00
2019-02-18T03:31:18.605Z,0.00
2019-02-18T03:32:19.247Z,0.00
2019-02-18T03:33:18.421Z,0.00
2019-02-18T03:34:18.299Z,0.00
2019-02-18T03:35:18.200Z,0.00
2019-02-18T03:36:18.096Z,0.00
2019-02-18T03:37:17.995Z,0.00
2019-02-18T03:38:17.913Z,0.00
2019-02-18T03:39:17.805Z,0.00
2019-02-18T03:40:17.696Z,0.00
2019-02-18T03:41:17.593Z,0.00
2019-02-18T03:42:17.497Z,0.00
2019-02-18T03:43:17.413Z,0.00
2019-02-18T03:44:17.291Z,0.00
2019-02-18T03:45:17.277Z,0.00
2019-02-18T03:46:17.092Z,0.00
2019-02-18T03:47:16.992Z,0.00
2019-02-18T03:48:16.915Z,0.00
2019-02-18T03:49:16.789Z,0.00
2019-02-18T03:50:16.687Z,0.00
2019-02-18T03:51:16.591Z,0.00
2019-02-18T03:52:16.488Z,0.00
2019-02-18T03:53:16.404Z,0.00
2019-02-18T03:54:16.288Z,0.00
2019-02-18T03:55:16.187Z,0.00
2019-02-18T03:56:16.084Z,0.00
2019-02-18T03:57:15.988Z,0.00
2019-02-18T03:58:15.902Z,0.00
2019-02-18T03:59:15.782Z,0.00
2019-02-18T04:00:15.682Z,0.00
2019-02-18T04:01:15.585Z,0.00
2019-02-18T04:02:15.486Z,0.00
2019-02-18T04:03:15.400Z,0.00
2019-02-18T04:04:15.284Z,0.00
2019-02-18T04:05:15.180Z,0.00
2019-02-18T04:06:15.079Z,0.00
2019-02-18T04:07:14.977Z,0.00
2019-02-18T04:08:17.428Z,0.00
2019-02-18T04:09:14.776Z,0.00
2019-02-18T04:10:14.679Z,0.00
2019-02-18T04:11:14.575Z,0.00
2019-02-18T04:12:14.476Z,0.00
2019-02-18T04:13:14.412Z,0.00
2019-02-18T04:14:14.274Z,0.00
2019-02-18T04:15:14.173Z,0.00
2019-02-18T04:16:14.071Z,0.00
2019-02-18T04:17:13.972Z,0.00
2019-02-18T04:18:13.886Z,0.00
2019-02-18T04:19:13.872Z,0.00
2019-02-18T04:20:13.669Z,0.00
2019-02-18T04:21:13.570Z,0.00
2019-02-18T04:22:13.466Z,0.00
2019-02-18T04:23:13.410Z,0.00
2019-02-18T04:24:13.269Z,0.00
2019-02-18T04:25:13.171Z,0.00
2019-02-18T04:26:13.170Z,0.00
2019-02-18T04:27:12.965Z,0.00
2019-02-18T04:28:12.879Z,0.00
2019-02-18T04:29:12.767Z,0.00
2019-02-18T04:30:13.743Z,0.00
2019-02-18T04:31:12.563Z,0.00
2019-02-18T04:32:12.463Z,0.00
2019-02-18T04:33:12.478Z,0.00
2019-02-18T04:34:12.260Z,0.00
2019-02-18T04:35:12.160Z,0.00
2019-02-18T04:36:12.059Z,0.00
2019-02-18T04:37:11.968Z,0.00
2019-02-18T04:38:11.876Z,0.00
2019-02-18T04:39:11.759Z,0.00
2019-02-18T04:40:11.758Z,0.00
2019-02-18T04:41:11.560Z,0.00
2019-02-18T04:42:11.456Z,0.00
2019-02-18T04:43:11.357Z,0.00
2019-02-18T04:44:11.277Z,0.00
2019-02-18T04:45:11.155Z,0.00
2019-02-18T04:46:11.050Z,0.00
2019-02-18T04:47:11.065Z,0.00
2019-02-18T04:48:10.869Z,0.00
2019-02-18T04:49:10.753Z,0.00
2019-02-18T04:50:10.653Z,0.00
2019-02-18T04:51:10.553Z,0.00
2019-02-18T04:52:10.453Z,0.00
2019-02-18T04:53:10.356Z,0.00
2019-02-18T04:54:10.366Z,0.00
2019-02-18T04:55:10.155Z,0.00
2019-02-18T04:56:10.049Z,0.00
2019-02-18T04:57:09.946Z,0.00
2019-02-18T04:58:09.854Z,0.00
2019-02-18T04:59:09.763Z,0.00
2019-02-18T05:00:09.650Z,0.00
2019-02-18T05:01:09.644Z,0.00
2019-02-18T05:02:09.442Z,0.00
2019-02-18T05:03:09.344Z,0.00
2019-02-18T05:04:09.257Z,0.00
2019-02-18T05:05:09.150Z,0.00
2019-02-18T05:06:09.042Z,0.00
2019-02-18T05:07:08.944Z,0.00
2019-02-18T05:08:08.945Z,0.00
2019-02-18T05:09:08.757Z,0.00
2019-02-18T05:10:08.644Z,0.00
2019-02-18T05:11:08.539Z,0.00
2019-02-18T05:12:08.443Z,0.00
2019-02-18T05:13:08.339Z,0.00
2019-02-18T05:14:08.250Z,0.00
2019-02-18T05:15:08.240Z,0.00
2019-02-18T05:16:08.034Z,0.00
2019-02-18T05:17:07.950Z,0.00
2019-02-18T05:18:07.838Z,0.00
2019-02-18T05:19:07.778Z,0.00
2019-02-18T05:20:07.634Z,0.00
2019-02-18T05:21:07.534Z,0.00
2019-02-18T05:22:07.437Z,0.00
2019-02-18T05:23:07.333Z,0.00
2019-02-18T05:24:07.246Z,0.00
2019-02-18T05:25:07.132Z,0.00
2019-02-18T05:26:07.030Z,0.00
2019-02-18T05:27:06.933Z,0.00
2019-02-18T05:28:06.828Z,0.00
2019-02-18T05:29:06.845Z,0.00
2019-02-18T05:30:06.631Z,0.00
2019-02-18T05:31:06.525Z,0.00
2019-02-18T05:32:06.428Z,0.00
2019-02-18T05:33:06.327Z,0.00
2019-02-18T05:34:06.243Z,0.00
2019-02-18T05:35:06.225Z,0.00
2019-02-18T05:36:06.032Z,0.00
2019-02-18T05:37:05.931Z,0.00
2019-02-18T05:38:05.822Z,0.00
2019-02-18T05:39:17.110Z,0.00
2019-02-18T05:40:05.622Z,0.00
2019-02-18T05:41:05.525Z,0.00
2019-02-18T05:42:05.421Z,0.00
2019-02-18T05:43:05.317Z,4.00
2019-02-18T05:44:05.241Z,4.00
2019-02-18T05:45:05.120Z,0.00
2019-02-18T05:46:05.018Z,4.00
2019-02-18T05:47:04.918Z,4.00
2019-02-18T05:48:04.820Z,4.00
2019-02-18T05:49:04.731Z,8.00
2019-02-18T05:50:04.619Z,8.00
2019-02-18T05:51:04.524Z,8.00
2019-02-18T05:52:04.413Z,8.00
2019-02-18T05:53:04.315Z,8.00
2019-02-18T05:54:04.227Z,12.00
2019-02-18T05:55:04.109Z,16.00
2019-02-18T05:56:04.014Z,20.00
2019-02-18T05:57:03.915Z,24.00
2019-02-18T05:58:03.808Z,28.00
2019-02-18T05:59:03.729Z,32.00
2019-02-18T06:00:03.612Z,36.00
2019-02-18T06:01:03.563Z,44.00
2019-02-18T06:02:03.407Z,56.00
2019-02-18T06:03:03.305Z,64.00
2019-02-18T06:04:03.219Z,72.00
2019-02-18T06:05:03.106Z,84.00
2019-02-18T06:06:03.003Z,100.00
2019-02-18T06:07:02.902Z,112.00
2019-02-18T06:08:02.799Z,132.00
2019-02-18T06:09:02.723Z,148.00
2019-02-18T06:10:02.602Z,164.00
2019-02-18T06:11:02.499Z,188.00
2019-02-18T06:12:02.399Z,212.00
2019-02-18T06:13:02.298Z,236.00
2019-02-18T06:14:02.214Z,260.00
2019-02-18T06:15:02.098Z,288.00
2019-02-18T06:16:01.998Z,316.00
2019-02-18T06:17:02.823Z,344.00
2019-02-18T06:18:01.791Z,372.00
2019-02-18T06:19:01.711Z,400.00
2019-02-18T06:20:01.594Z,432.00
2019-02-18T06:21:01.491Z,464.00
2019-02-18T06:22:01.392Z,496.00
2019-02-18T06:23:01.315Z,528.00
2019-02-18T06:24:01.294Z,568.00
2019-02-18T06:25:01.095Z,608.00
2019-02-18T06:26:01.057Z,644.00
2019-02-18T06:27:00.886Z,684.00
2019-02-18T06:28:00.793Z,720.00
2019-02-18T06:29:00.703Z,764.00
2019-02-18T06:30:00.588Z,800.00
2019-02-18T06:31:00.584Z,840.00
2019-02-18T06:32:00.383Z,880.00
2019-02-18T06:33:01.147Z,924.00
2019-02-18T06:34:00.187Z,972.00
2019-02-18T06:35:00.308Z,1020.00
2019-02-18T06:35:59.981Z,1072.00
2019-02-18T06:36:59.883Z,1124.00
2019-02-18T06:37:59.886Z,1176.00
2019-02-18T06:38:59.698Z,1232.00
2019-02-18T06:39:59.584Z,1288.00
2019-02-18T06:40:59.479Z,1340.00
2019-02-18T06:41:59.380Z,1392.00
2019-02-18T06:42:59.278Z,1448.00
2019-02-18T06:43:59.178Z,1508.00
2019-02-18T06:44:59.195Z,1556.00
2019-02-18T06:45:58.979Z,1604.00
2019-02-18T06:46:58.880Z,1640.00
2019-02-18T06:47:58.776Z,1676.00
2019-02-18T06:48:58.680Z,1724.00
2019-02-18T06:49:58.592Z,1776.00
2019-02-18T06:50:58.476Z,1848.00
2019-02-18T06:51:58.495Z,1908.00
2019-02-18T06:52:58.281Z,1972.00
2019-02-18T06:53:58.172Z,2032.00
2019-02-18T06:54:58.091Z,2092.00
2019-02-18T06:55:57.977Z,2152.00
2019-02-18T06:56:57.872Z,2200.00
2019-02-18T06:57:57.773Z,2268.00
2019-02-18T06:58:57.774Z,2324.00
2019-02-18T06:59:57.591Z,2356.00
2019-02-18T07:00:57.474Z,2396.00
2019-02-18T07:01:57.370Z,2432.00
2019-02-18T07:02:57.274Z,2492.00
2019-02-18T07:03:57.173Z,2556.00
2019-02-18T07:04:57.088Z,2628.00
2019-02-18T07:05:56.973Z,2768.00
2019-02-18T07:06:56.871Z,4240.00
2019-02-18T07:07:56.772Z,5828.00
2019-02-18T07:08:56.672Z,6600.00
2019-02-18T07:09:56.588Z,8236.00
2019-02-18T07:10:56.485Z,9476.00
2019-02-18T07:11:56.371Z,10188.00
2019-02-18T07:12:56.278Z,10412.00
2019-02-18T07:13:56.173Z,10520.00
2019-02-18T07:14:56.094Z,10728.00
2019-02-18T07:15:55.973Z,11728.00
2019-02-18T07:16:55.878Z,12032.00
2019-02-18T07:17:55.772Z,11956.00
2019-02-18T07:18:55.672Z,11932.00
2019-02-18T07:19:55.589Z,12736.00
2019-02-18T07:20:55.580Z,11928.00
2019-02-18T07:21:55.376Z,12392.00
2019-02-18T07:22:55.278Z,11616.00
2019-02-18T07:23:55.179Z,11372.00
2019-02-18T07:24:55.098Z,12456.00
2019-02-18T07:25:54.987Z,13952.00
2019-02-18T07:26:54.886Z,13856.00
2019-02-18T07:27:54.890Z,14816.00
2019-02-18T07:28:54.692Z,15904.00
2019-02-18T07:29:54.611Z,14912.00
2019-02-18T07:30:54.497Z,12400.00
2019-02-18T07:31:54.424Z,11216.00
2019-02-18T07:32:54.303Z,11364.00
2019-02-18T07:33:54.207Z,12148.00
2019-02-18T07:34:54.236Z,12304.00
2019-02-18T07:35:54.016Z,12004.00
2019-02-18T07:36:54.033Z,12180.00
2019-02-18T07:37:53.825Z,13092.00
2019-02-18T07:38:53.727Z,12648.00
2019-02-18T07:40:01.049Z,12260.00
2019-02-18T07:40:53.539Z,13872.00
2019-02-18T07:41:53.555Z,15392.00
2019-02-18T07:42:53.349Z,17216.00
2019-02-18T07:43:53.255Z,18784.00
2019-02-18T07:44:53.173Z,19072.00
2019-02-18T07:45:53.065Z,19040.00
2019-02-18T07:46:52.969Z,18944.00
2019-02-18T07:47:52.874Z,19584.00
2019-02-18T07:48:52.894Z,18208.00
2019-02-18T07:49:52.705Z,17280.00
2019-02-18T07:50:52.595Z,21152.00
2019-02-18T07:51:52.501Z,23104.00
2019-02-18T07:52:52.408Z,21600.00
2019-02-18T07:53:52.318Z,22240.00
2019-02-18T07:54:52.235Z,23264.00
2019-02-18T07:55:52.133Z,22528.00
2019-02-18T07:56:52.038Z,22752.00
2019-02-18T07:57:51.943Z,23488.00
2019-02-18T07:58:51.855Z,23840.00
2019-02-18T07:59:51.772Z,25440.00
2019-02-18T08:00:51.664Z,25536.00
2019-02-18T08:01:51.590Z,27104.00
2019-02-18T08:02:51.575Z,28064.00
2019-02-18T08:03:51.386Z,26848.00
2019-02-18T08:04:51.318Z,26048.00
2019-02-18T08:05:51.210Z,26528.00
2019-02-18T08:06:51.111Z,26368.00
2019-02-18T08:07:51.018Z,25632.00
2019-02-18T08:08:51.055Z,25024.00
2019-02-18T08:09:50.855Z,25216.00
2019-02-18T08:10:50.743Z,25664.00
2019-02-18T08:11:50.655Z,26432.00
2019-02-18T08:12:50.560Z,26048.00
2019-02-18T08:13:50.478Z,27616.00
2019-02-18T08:14:50.379Z,30496.00
2019-02-18T08:15:50.305Z,30496.00
2019-02-18T08:16:50.201Z,31136.00
2019-02-18T08:17:50.103Z,30368.00
2019-02-18T08:18:50.016Z,29632.00
2019-02-18T08:19:49.922Z,29504.00
2019-02-18T08:20:49.847Z,29728.00
2019-02-18T08:21:49.740Z,30336.00
2019-02-18T08:22:49.648Z,30816.00
2019-02-18T08:23:59.401Z,31776.00
2019-02-18T08:24:49.472Z,32576.00
2019-02-18T08:25:49.392Z,31840.00
2019-02-18T08:26:49.289Z,31360.00
2019-02-18T08:27:49.196Z,32864.00
2019-02-18T08:28:49.104Z,30784.00
2019-02-18T08:29:49.015Z,29344.00
2019-02-18T08:30:48.943Z,31616.00
2019-02-18T08:31:48.833Z,32512.00
2019-02-18T08:32:48.743Z,34656.00
2019-02-18T08:33:48.656Z,35424.00
2019-02-18T08:34:48.567Z,35744.00
2019-02-18T08:35:48.488Z,36800.00
2019-02-18T08:36:48.384Z,37152.00
2019-02-18T08:37:48.292Z,37344.00
2019-02-18T08:38:48.203Z,36384.00
2019-02-18T08:39:48.112Z,36768.00
2019-02-18T08:40:48.045Z,37024.00
2019-02-18T08:41:47.936Z,34976.00
2019-02-18T08:42:47.844Z,33984.00
2019-02-18T08:43:47.755Z,35552.00
2019-02-18T08:44:47.666Z,38656.00
2019-02-18T08:45:47.590Z,39136.00
2019-02-18T08:46:47.486Z,36608.00
2019-02-18T08:47:47.399Z,33536.00
2019-02-18T08:48:47.310Z,33760.00
2019-02-18T08:49:47.219Z,37760.00
2019-02-18T08:50:47.146Z,39296.00
2019-02-18T08:51:47.038Z,38688.00
2019-02-18T08:52:46.951Z,38144.00
2019-02-18T08:53:47.911Z,35232.00
2019-02-18T08:54:56.029Z,35744.00
2019-02-18T08:55:46.702Z,38144.00
2019-02-18T08:56:46.599Z,37472.00
2019-02-18T08:57:46.508Z,33344.00
2019-02-18T08:58:46.419Z,32320.00
2019-02-18T08:59:46.331Z,34336.00
2019-02-18T09:00:46.258Z,35456.00
2019-02-18T09:01:46.153Z,34400.00
2019-02-18T09:02:46.067Z,33280.00
2019-02-18T09:03:45.977Z,32960.00
2019-02-18T09:04:45.890Z,33024.00
2019-02-18T09:05:45.819Z,32864.00
2019-02-18T09:06:45.713Z,32928.00
2019-02-18T09:07:45.626Z,33344.00
2019-02-18T09:08:45.552Z,33376.00
2019-02-18T09:09:45.450Z,33760.00
2019-02-18T09:10:45.379Z,34624.00
2019-02-18T09:11:45.374Z,34208.00
2019-02-18T09:12:45.217Z,33664.00
2019-02-18T09:13:45.105Z,34080.00
2019-02-18T09:14:45.017Z,34624.00
2019-02-18T09:15:44.944Z,35296.00
2019-02-18T09:16:44.839Z,35168.00
2019-02-18T09:17:44.754Z,34976.00
2019-02-18T09:18:44.761Z,34560.00
2019-02-18T09:19:44.581Z,34880.00
2019-02-18T09:20:44.507Z,35200.00
2019-02-18T09:21:44.405Z,35520.00
2019-02-18T09:22:44.314Z,35424.00
2019-02-18T09:23:44.228Z,35680.00
2019-02-18T09:24:44.142Z,35808.00
2019-02-18T09:25:44.163Z,35840.00
2019-02-18T09:26:43.968Z,36032.00
2019-02-18T09:27:43.879Z,36192.00
2019-02-18T09:28:43.795Z,36448.00
2019-02-18T09:29:43.715Z,36128.00
2019-02-18T09:30:43.652Z,36576.00
2019-02-18T09:31:43.532Z,36992.00
2019-02-18T09:32:43.547Z,36800.00
2019-02-18T09:33:43.359Z,36800.00
2019-02-18T09:34:43.269Z,36896.00
2019-02-18T09:35:43.200Z,36832.00
2019-02-18T09:36:43.098Z,37120.00
2019-02-18T09:37:43.007Z,37600.00
2019-02-18T09:38:42.921Z,37728.00
2019-02-18T09:39:42.932Z,37792.00
2019-02-18T09:40:46.065Z,37920.00
2019-02-18T09:41:42.663Z,38528.00
2019-02-18T09:42:42.572Z,38400.00
2019-02-18T09:43:42.486Z,38400.00
2019-02-18T09:44:42.402Z,38880.00
2019-02-18T09:45:42.331Z,39136.00
2019-02-18T09:46:42.344Z,40032.00
2019-02-18T09:47:42.139Z,40384.00
2019-02-18T09:48:42.053Z,40288.00
2019-02-18T09:49:41.965Z,39776.00
2019-02-18T09:50:41.895Z,39872.00
2019-02-18T09:51:41.798Z,40352.00
2019-02-18T09:52:41.708Z,40896.00
2019-02-18T09:53:41.728Z,41184.00
2019-02-18T09:54:41.533Z,41248.00
2019-02-18T09:55:41.464Z,40640.00
2019-02-18T09:56:41.365Z,40864.00
2019-02-18T09:57:41.275Z,42016.00
2019-02-18T09:58:41.188Z,42752.00
2019-02-18T09:59:41.096Z,42592.00
2019-02-18T10:00:41.130Z,42688.00
2019-02-18T10:01:43.124Z,43296.00
2019-02-18T10:02:40.839Z,43456.00
2019-02-18T10:03:40.755Z,43424.00
2019-02-18T10:04:40.664Z,43584.00
2019-02-18T10:05:40.580Z,43360.00
2019-02-18T10:06:40.682Z,43392.00
2019-02-18T10:07:40.406Z,43520.00
2019-02-18T10:08:40.319Z,44320.00
2019-02-18T10:09:40.233Z,44864.00
2019-02-18T10:10:40.147Z,46080.00
2019-02-18T10:11:40.071Z,46688.00
2019-02-18T10:12:39.968Z,46432.00
2019-02-18T10:13:39.879Z,46272.00
2019-02-18T10:14:39.890Z,47200.00
2019-02-18T10:15:39.706Z,47104.00
2019-02-18T10:16:39.633Z,46880.00
2019-02-18T10:17:39.539Z,46592.00
2019-02-18T10:18:39.442Z,46176.00
2019-02-18T10:19:39.376Z,46048.00
2019-02-18T10:20:39.274Z,46080.00
2019-02-18T10:21:39.200Z,45792.00
2019-02-18T10:22:39.096Z,45536.00
2019-02-18T10:23:39.005Z,46272.00
2019-02-18T10:24:50.227Z,47648.00
2019-02-18T10:25:38.835Z,48608.00
2019-02-18T10:26:38.758Z,48832.00
2019-02-18T10:27:38.655Z,48192.00
2019-02-18T10:28:38.573Z,47936.00
2019-02-18T10:29:38.486Z,49024.00
2019-02-18T10:30:38.395Z,49696.00
2019-02-18T10:31:38.322Z,50720.00
2019-02-18T10:32:38.222Z,50944.00
2019-02-18T10:33:38.134Z,50976.00
2019-02-18T10:34:38.047Z,51072.00
2019-02-18T10:35:37.994Z,50944.00
2019-02-18T10:36:37.885Z,50784.00
2019-02-18T10:37:37.782Z,50752.00
2019-02-18T10:38:40.050Z,51936.00
2019-02-18T10:39:37.605Z,51872.00
2019-02-18T10:40:37.517Z,51008.00
2019-02-18T10:41:37.448Z,49664.00
2019-02-18T10:42:37.344Z,49760.00
2019-02-18T10:43:37.268Z,49504.00
2019-02-18T10:44:37.171Z,49344.00
2019-02-18T10:45:37.084Z,51040.00
2019-02-18T10:46:37.014Z,52480.00
2019-02-18T10:47:36.910Z,52704.00
2019-02-18T10:48:36.820Z,51872.00
2019-02-18T10:49:36.733Z,51424.00
2019-02-18T10:50:36.651Z,50752.00
2019-02-18T10:51:36.576Z,52576.00
2019-02-18T10:52:36.473Z,53312.00
2019-02-18T10:53:36.456Z,52832.00
2019-02-18T10:54:36.297Z,51808.00
2019-02-18T10:55:36.214Z,51840.00
2019-02-18T10:56:36.141Z,51808.00
2019-02-18T10:57:36.038Z,51776.00
2019-02-18T10:58:35.951Z,51584.00
2019-02-18T10:59:35.864Z,51840.00
2019-02-18T11:00:35.781Z,52192.00
2019-02-18T11:01:35.705Z,51840.00
2019-02-18T11:02:35.608Z,51680.00
2019-02-18T11:03:35.517Z,52704.00
2019-02-18T11:04:35.436Z,53952.00
2019-02-18T11:05:35.348Z,54560.00
2019-02-18T11:06:35.286Z,54688.00
2019-02-18T11:07:35.171Z,55040.00
2019-02-18T11:08:35.086Z,54528.00
2019-02-18T11:09:35.006Z,55328.00
2019-02-18T11:10:34.911Z,54432.00
2019-02-18T11:11:34.847Z,56640.00
2019-02-18T11:12:34.740Z,59328.00
2019-02-18T11:13:34.656Z,62496.00
2019-02-18T11:14:34.567Z,71552.00
2019-02-18T11:15:34.503Z,76224.00
2019-02-18T11:16:34.414Z,79744.00
2019-02-18T11:17:38.953Z,78432.00
2019-02-18T11:18:34.224Z,76480.00
2019-02-18T11:19:34.141Z,70720.00
2019-02-18T11:20:34.052Z,67840.00
2019-02-18T11:21:33.981Z,67040.00
2019-02-18T11:22:33.880Z,64256.00
2019-02-18T11:23:33.899Z,64960.00
2019-02-18T11:24:33.710Z,67232.00
2019-02-18T11:25:33.621Z,66912.00
2019-02-18T11:26:33.553Z,63008.00
2019-02-18T11:27:33.453Z,60224.00
2019-02-18T11:28:33.362Z,61632.00
2019-02-18T11:29:33.278Z,61344.00
2019-02-18T11:30:33.294Z,60736.00
2019-02-18T11:31:33.122Z,59424.00
2019-02-18T11:32:33.018Z,59680.00
2019-02-18T11:33:32.934Z,62048.00
2019-02-18T11:34:32.847Z,62880.00
2019-02-18T11:35:32.762Z,60608.00
2019-02-18T11:36:32.687Z,60288.00
2019-02-18T11:37:32.706Z,60992.00
2019-02-18T11:38:32.502Z,63040.00
2019-02-18T11:39:32.417Z,65888.00
2019-02-18T11:40:32.355Z,67872.00
2019-02-18T11:41:32.258Z,74400.00
2019-02-18T11:42:32.153Z,72992.00
2019-02-18T11:43:32.068Z,74656.00
2019-02-18T11:44:32.082Z,75680.00
2019-02-18T11:45:31.900Z,75456.00
2019-02-18T11:46:31.825Z,74944.00
2019-02-18T11:47:31.720Z,76832.00
2019-02-18T11:48:31.637Z,78112.00
2019-02-18T11:49:31.551Z,78720.00
2019-02-18T11:50:31.464Z,78784.00
2019-02-18T11:51:31.481Z,78688.00
2019-02-18T11:52:31.308Z,78208.00
2019-02-18T11:53:31.203Z,77824.00
2019-02-18T11:54:31.119Z,77856.00
2019-02-18T11:55:31.031Z,77568.00
2019-02-18T11:56:30.944Z,76960.00
2019-02-18T11:57:31.683Z,77056.00
2019-02-18T11:58:30.890Z,75744.00
2019-02-18T11:59:30.686Z,72288.00
2019-02-18T12:00:30.602Z,70720.00
2019-02-18T12:01:30.522Z,72512.00
2019-02-18T12:02:30.443Z,75104.00
2019-02-18T12:03:30.344Z,74080.00
2019-02-18T12:04:30.258Z,73504.00
2019-02-18T12:05:30.276Z,74432.00
2019-02-18T12:06:30.083Z,73760.00
2019-02-18T12:07:30.013Z,72608.00
2019-02-18T12:08:29.911Z,71584.00
2019-02-18T12:09:29.841Z,71520.00
2019-02-18T12:10:29.746Z,69696.00
2019-02-18T12:11:37.977Z,70976.00
2019-02-18T12:12:29.685Z,67040.00
2019-02-18T12:13:29.477Z,65152.00
2019-02-18T12:14:29.392Z,67616.00
2019-02-18T12:15:29.309Z,74368.00
2019-02-18T12:16:29.220Z,75456.00
2019-02-18T12:17:29.145Z,71552.00
2019-02-18T12:18:29.144Z,69952.00
2019-02-18T12:19:28.956Z,70880.00
2019-02-18T12:20:28.880Z,68320.00
2019-02-18T12:21:28.784Z,63776.00
2019-02-18T12:22:28.716Z,61024.00
2019-02-18T12:23:28.612Z,65216.00
2019-02-18T12:24:28.540Z,71808.00
2019-02-18T12:25:28.440Z,74912.00
2019-02-18T12:26:28.352Z,68672.00
2019-02-18T12:27:28.285Z,63872.00
2019-02-18T12:28:28.179Z,63744.00